Terminal Aerodrome Forecast
Issued by NWS Boston, MA

Home | Current Version | Previous Version | Text Only | Print | Product List | Glossary On
Versions: 1 2 3 4 5 6 7 8 9 10 11 12 13 14 15 16 17 18 19 20 21 22 23 24 25
000
FTUS41 KBOX 261506 AAA
TAFBDL
TAF AMD
KBDL 261506Z 2615/2718 01010KT 5SM -DZ BR VCSH OVC006
     FM261800 03005KT P6SM VCSH OVC008
     FM262000 02005KT P6SM VCSH OVC010
     FM270100 02004KT 5SM BR OVC010
     FM270500 VRB03KT 3SM -DZ BR OVC010
     FM271400 00000KT P6SM OVC010=

USA.gov is the U.S. government's official web portal to all federal, state and local government web resources and services.